Terminal Aerodrome Forecast
Issued by NWS Missoula, MT

Home | Current Version | Previous Version | Text Only | Print | Product List | Glossary On
Versions: 1 2 3 4 5 6 7 8 9 10 11 12 13 14 15 16 17 18 19 20 21
650
FTUS45 KMSO 220718 AAA
TAFBTM
TAF AMD
KBTM 220718Z 2207/2306 30010KT 6SM -RASN BKN010 OVC025
     FM221000 34015G25KT 1SM -SN BKN010 OVC020
     FM221800 28012G20KT 3SM -SN OVC025
     FM230100 34005KT P6SM VCSH BKN025=

USA.gov is the U.S. government's official web portal to all federal, state and local government web resources and services.